Terminal Aerodrome Forecast
Issued by NWS Louisville, KY

Home | Current Version | Previous Version | Text Only | Print | Product List | Glossary On
Versions: 1 2 3 4 5 6 7 8 9 10 11 12 13 14 15 16
000
FTUS43 KLMK 272100 AAC
TAFSDF
TAF AMD
KSDF 272132Z 2722/2824 VRB20G30KT 2SM TSRA SCT020CB BKN040
     FM272215 14010KT P6SM VCTS SCT040CB BKN100
     FM280000 01005KT P6SM FEW040
     FM281000 02003KT 5SM BR SKC
     FM281300 06005KT P6SM SCT040=

USA.gov is the U.S. government's official web portal to all federal, state and local government web resources and services.